createdAt,value
2023-03-10T00:07:02.654Z,16.17
2023-03-10T00:14:36.749Z,14.73
2023-03-10T00:22:12.053Z,13.07
2023-03-10T00:29:45.972Z,13.77
2023-03-10T00:37:21.468Z,12.75
2023-03-10T00:44:55.561Z,11.63
2023-03-10T00:52:34.751Z,13.15
2023-03-10T01:08:10.284Z,12.23
2023-03-10T01:15:44.808Z,13.10
2023-03-10T01:31:15.237Z,12.63
2023-03-10T01:38:51.013Z,14.48
2023-03-10T01:46:49.083Z,12.68
2023-03-10T02:02:20.500Z,11.48
2023-03-10T02:09:57.293Z,13.52
2023-03-10T02:17:31.676Z,12.18
2023-03-10T02:25:20.051Z,12.32
2023-03-10T02:32:58.956Z,9.90
2023-03-10T02:40:37.404Z,12.07
2023-03-10T02:48:15.828Z,11.60
2023-03-10T02:55:50.023Z,10.35
2023-03-10T03:03:25.321Z,10.20
2023-03-10T03:10:59.214Z,10.32
2023-03-10T03:18:34.803Z,10.07
2023-03-10T03:26:15.656Z,9.25
2023-03-10T03:33:51.327Z,9.00
2023-03-10T03:41:25.269Z,8.30
2023-03-10T03:49:00.637Z,7.38
2023-03-10T03:56:34.649Z,8.02
2023-03-10T04:04:10.070Z,8.02
2023-03-10T04:11:44.024Z,8.20
2023-03-10T04:19:19.317Z,7.70
2023-03-10T04:26:53.386Z,8.50
2023-03-10T04:42:20.449Z,9.32
2023-03-10T04:49:55.766Z,8.65
2023-03-10T04:57:29.760Z,8.43
2023-03-10T05:05:05.789Z,7.15
2023-03-10T05:12:39.958Z,7.05
2023-03-10T05:20:15.665Z,8.23
2023-03-10T05:27:49.664Z,8.25
2023-03-10T05:35:24.985Z,9.20
2023-03-10T05:42:59.418Z,8.63
2023-03-10T05:50:40.281Z,8.93
2023-03-10T05:58:14.424Z,8.63
2023-03-10T06:13:41.136Z,6.88
2023-03-10T06:21:16.557Z,9.10
2023-03-10T06:28:50.364Z,9.77
2023-03-10T06:36:27.344Z,9.83
2023-03-10T06:51:54.383Z,9.95
2023-03-10T06:59:28.282Z,8.60
2023-03-10T07:07:03.674Z,10.07
2023-03-10T07:14:37.607Z,9.93
2023-03-10T07:22:12.855Z,9.57
2023-03-10T07:29:46.765Z,9.38
2023-03-10T07:37:22.033Z,10.40
2023-03-10T07:45:13.282Z,9.05
2023-03-10T07:52:49.064Z,10.23
2023-03-10T08:00:23.155Z,9.35
2023-03-10T08:07:58.547Z,10.98
2023-03-10T08:15:33.187Z,10.13
2023-03-10T08:23:08.751Z,10.27
2023-03-10T08:31:00.902Z,12.65
2023-03-10T08:38:39.053Z,11.90
2023-03-10T08:46:14.083Z,13.38
2023-03-10T08:53:51.399Z,13.95
2023-03-10T09:01:26.388Z,14.18
2023-03-10T09:09:02.155Z,14.57
2023-03-10T09:16:36.389Z,12.63
2023-03-10T09:24:12.201Z,13.30
2023-03-10T09:31:48.456Z,11.90
2023-03-10T09:39:23.996Z,10.13
2023-03-10T09:47:13.545Z,8.02
2023-03-10T09:54:56.587Z,8.93
2023-03-10T10:02:33.831Z,7.90
2023-03-10T10:10:18.627Z,8.68
2023-03-10T10:18:16.105Z,11.63
2023-03-10T10:25:54.911Z,11.32
2023-03-10T10:33:29.049Z,10.48
2023-03-10T10:41:07.649Z,11.33
2023-03-10T10:48:45.271Z,12.00
2023-03-10T11:12:12.719Z,9.95
2023-03-10T11:28:00.743Z,13.27
2023-03-10T11:35:43.953Z,14.32
2023-03-10T11:43:31.482Z,13.98
2023-03-10T11:51:07.348Z,11.73
2023-03-10T11:58:48.673Z,11.65
2023-03-10T12:06:30.272Z,12.48
2023-03-10T12:14:05.951Z,12.95
2023-03-10T12:21:39.860Z,13.55
2023-03-10T12:29:46.170Z,12.60
2023-03-10T12:45:28.470Z,11.40
2023-03-10T12:53:15.486Z,11.38
2023-03-10T13:00:55.179Z,11.00
2023-03-10T13:08:37.767Z,10.88
2023-03-10T13:16:20.189Z,9.75
2023-03-10T13:23:54.778Z,10.40
2023-03-10T13:39:27.409Z,8.80
2023-03-10T13:47:05.905Z,7.82
2023-03-10T13:54:42.017Z,10.30
2023-03-10T14:02:22.014Z,9.85
2023-03-10T14:10:20.282Z,6.22
2023-03-10T14:18:19.634Z,5.97
2023-03-10T14:25:55.538Z,7.75
2023-03-10T14:33:30.871Z,6.70
2023-03-10T14:41:05.629Z,9.35
2023-03-10T14:48:42.191Z,11.02
2023-03-10T14:56:18.768Z,8.50
2023-03-10T15:03:54.002Z,9.57
2023-03-10T15:11:36.922Z,10.75
2023-03-10T15:19:19.126Z,14.27
2023-03-10T15:26:52.881Z,12.82
2023-03-10T15:34:28.364Z,9.77
2023-03-10T15:42:02.548Z,9.80
2023-03-10T15:49:40.080Z,10.37
2023-03-10T15:57:14.864Z,11.35
2023-03-10T16:04:50.586Z,9.77
2023-03-10T16:12:24.674Z,9.07
2023-03-10T16:20:02.483Z,9.57
2023-03-10T16:27:36.585Z,14.52
2023-03-10T16:35:12.219Z,11.97
2023-03-10T16:42:46.723Z,13.70
2023-03-10T16:50:22.426Z,19.77
2023-03-10T16:57:57.761Z,17.27
2023-03-10T17:13:24.202Z,12.68
2023-03-10T17:20:59.567Z,12.47
2023-03-10T17:28:33.540Z,13.27
2023-03-10T17:36:12.908Z,13.33
2023-03-10T17:43:46.710Z,12.45
2023-03-10T17:51:24.267Z,14.80
2023-03-10T17:58:58.997Z,12.95
2023-03-10T18:06:36.980Z,14.60
2023-03-10T18:14:11.146Z,15.20
2023-03-10T18:21:46.514Z,12.00
2023-03-10T18:29:20.710Z,10.52
2023-03-10T18:36:56.080Z,12.23
2023-03-10T18:44:29.905Z,13.20
2023-03-10T18:52:05.330Z,16.23
2023-03-10T18:59:39.960Z,14.77
2023-03-10T19:07:15.955Z,11.20
2023-03-10T19:14:54.343Z,12.05
2023-03-10T19:22:30.479Z,15.70
2023-03-10T19:30:04.845Z,12.93
2023-03-10T19:37:43.030Z,11.50
2023-03-10T19:53:11.684Z,10.60
2023-03-10T20:00:46.656Z,10.63
2023-03-10T20:08:26.534Z,11.25
2023-03-10T20:23:55.962Z,12.95
2023-03-10T20:31:33.871Z,11.13
2023-03-10T20:39:09.853Z,12.10
2023-03-10T20:46:44.211Z,12.68
2023-03-10T20:54:19.581Z,14.43
2023-03-10T21:01:53.335Z,18.40
2023-03-10T21:25:15.792Z,12.85
2023-03-10T21:32:50.689Z,13.88
2023-03-10T21:40:26.929Z,14.65
2023-03-10T21:48:00.906Z,16.08
2023-03-10T21:55:38.349Z,15.23
2023-03-10T22:03:12.586Z,13.57
2023-03-10T22:10:48.023Z,14.57
2023-03-10T22:18:22.052Z,15.68
2023-03-10T22:25:57.940Z,13.25
2023-03-10T22:33:31.819Z,13.60
2023-03-10T22:41:11.841Z,13.27
2023-03-10T22:48:45.621Z,13.23
2023-03-10T22:56:21.131Z,7.97
2023-03-10T23:03:54.869Z,12.10
2023-03-10T23:11:30.514Z,12.07
2023-03-10T23:19:07.265Z,12.98
2023-03-10T23:26:44.019Z,12.23
2023-03-10T23:34:19.210Z,12.18
2023-03-10T23:41:54.521Z,12.93
2023-03-10T23:49:28.481Z,11.27
2023-03-10T23:57:03.779Z,10.52
